Time;durP1;ratioP1;P1;durP2;ratioP2;P2;SDS_P1;SDS_P2;PMS_P1;PMS_P2;Temp;Humidity;BMP_temperature;BMP_pressure;BME280_temperature;BME280_humidity;BME280_pressure;Samples;Min_cycle;Max_cycle;Signal;HPM_P1;HPM_P2
2023/02/07 00:01:36;;;;;;;82.20;38.08;;;;;;;-3.35;80.56;102593.90;1699695;84;25747;-51
2023/02/07 00:04:04;;;;;;;70.83;35.92;;;;;;;-3.35;80.50;102593.90;1699753;84;25479;-54
2023/02/07 00:06:36;;;;;;;75.80;35.63;;;;;;;-3.30;80.55;102596.05;1699777;84;27965;-53
2023/02/07 00:09:07;;;;;;;81.30;36.53;;;;;;;-3.29;80.56;102594.56;1699540;84;25601;-52
2023/02/07 00:11:39;;;;;;;83.45;37.45;;;;;;;-3.27;80.60;102587.31;1699888;84;25517;-52
2023/02/07 00:14:11;;;;;;;77.78;36.73;;;;;;;-3.23;80.68;102580.70;1699634;84;25647;-50
2023/02/07 00:16:41;;;;;;;83.52;37.93;;;;;;;-3.20;80.80;102578.23;1699757;84;25642;-54
2023/02/07 00:19:11;;;;;;;83.40;36.50;;;;;;;-3.18;80.69;102573.60;1692780;84;28042;-53
2023/02/07 00:21:41;;;;;;;78.83;37.05;;;;;;;-3.20;80.53;102568.97;1692424;84;25612;-50
2023/02/07 00:24:07;;;;;;;79.03;37.25;;;;;;;-3.18;80.62;102574.92;1692433;84;25503;-50
2023/02/07 00:26:35;;;;;;;81.35;36.80;;;;;;;-3.16;80.57;102570.80;1692458;84;26244;-53
2023/02/07 00:29:01;;;;;;;78.17;36.17;;;;;;;-3.16;80.62;102570.30;1692537;84;25483;-53
2023/02/07 00:31:33;;;;;;;80.72;37.88;;;;;;;-3.13;80.62;102569.13;1692488;84;27292;-50
2023/02/07 00:34:05;;;;;;;81.40;36.40;;;;;;;-3.12;80.55;102581.38;1670519;84;25492;-51
2023/02/07 00:36:37;;;;;;;79.75;36.50;;;;;;;-3.13;80.58;102575.75;1692592;84;25617;-51
2023/02/07 00:39:09;;;;;;;79.87;36.05;;;;;;;-3.12;80.65;102574.27;1692457;84;25566;-51
2023/02/07 00:41:40;;;;;;;83.15;36.35;;;;;;;-3.10;80.65;102577.59;1692642;84;25558;-50
2023/02/07 00:44:09;;;;;;;75.00;36.33;;;;;;;-3.09;80.72;102575.27;1692557;84;27334;-51
2023/02/07 00:46:37;;;;;;;77.95;36.70;;;;;;;-3.07;80.66;102572.45;1692328;84;25565;-54
2023/02/07 00:49:07;;;;;;;80.83;40.08;;;;;;;-3.07;80.69;102579.90;1692594;84;25547;-53
2023/02/07 00:51:35;;;;;;;78.02;36.50;;;;;;;-3.06;80.66;102578.10;1692500;84;26186;-51
2023/02/07 00:54:05;;;;;;;78.15;38.33;;;;;;;-3.05;80.65;102577.94;1692462;84;25406;-50
2023/02/07 00:56:35;;;;;;;86.35;38.15;;;;;;;-3.04;80.65;102564.20;1694223;84;28361;-51
2023/02/07 00:59:03;;;;;;;82.53;39.20;;;;;;;-3.03;80.68;102567.16;1692407;84;25716;-54
2023/02/07 01:01:30;;;;;;;81.37;38.67;;;;;;;-3.03;80.70;102560.54;1692412;84;25562;-50
2023/02/07 01:03:58;;;;;;;80.77;37.78;;;;;;;-3.04;80.65;102554.93;1692410;84;25704;-50
2023/02/07 01:06:26;;;;;;;90.28;40.08;;;;;;;-3.03;80.71;102557.42;1692552;84;25416;-52
2023/02/07 01:09:03;;;;;;;81.08;37.90;;;;;;;-3.01;80.80;102560.73;1692503;84;27430;-52
2023/02/07 01:11:33;;;;;;;87.53;38.65;;;;;;;-3.02;80.76;102563.03;1692407;84;25833;-52
2023/02/07 01:14:03;;;;;;;84.40;38.50;;;;;;;-3.01;80.78;102570.50;1692427;84;25652;-51
2023/02/07 01:16:34;;;;;;;84.95;37.85;;;;;;;-3.02;80.74;102577.59;1692391;84;26148;-51
2023/02/07 01:19:06;;;;;;;80.87;37.25;;;;;;;-3.01;80.86;102573.15;1698997;83;25646;-50
2023/02/07 01:21:34;;;;;;;82.70;39.03;;;;;;;-2.98;80.95;102575.45;1704814;84;27358;-49
2023/02/07 01:24:01;;;;;;;81.08;38.42;;;;;;;-2.96;81.00;102572.64;1699949;84;25544;-53
2023/02/07 01:26:31;;;;;;;89.13;39.33;;;;;;;-2.96;80.93;102569.98;1704745;84;25954;-51
2023/02/07 01:28:57;;;;;;;85.17;40.20;;;;;;;-2.97;80.90;102575.79;1704801;84;26243;-52
2023/02/07 01:31:25;;;;;;;85.38;38.80;;;;;;;-2.94;80.97;102579.44;1704771;84;25596;-52
2023/02/07 01:34:00;;;;;;;82.05;38.58;;;;;;;-2.94;80.99;102585.25;1704751;84;27348;-53
2023/02/07 01:36:30;;;;;;;88.52;39.27;;;;;;;-2.93;80.99;102579.75;1704671;84;25522;-54
2023/02/07 01:38:58;;;;;;;84.25;39.67;;;;;;;-2.95;80.97;102580.42;1704691;84;25552;-51
2023/02/07 01:41:30;;;;;;;95.38;42.65;;;;;;;-2.94;80.95;102578.63;1704728;84;25617;-52
2023/02/07 01:44:08;;;;;;;82.15;38.60;;;;;;;-2.93;81.02;102584.23;1704951;84;25607;-52
2023/02/07 01:46:36;;;;;;;85.38;38.80;;;;;;;-2.93;81.00;102581.59;1705003;84;27504;-52
2023/02/07 01:49:10;;;;;;;87.55;41.50;;;;;;;-2.94;81.13;102582.09;1704728;84;25783;-50
2023/02/07 01:51:42;;;;;;;89.60;40.38;;;;;;;-2.93;81.16;102568.34;1704784;84;25586;-49
2023/02/07 01:54:14;;;;;;;94.75;43.02;;;;;;;-2.92;81.24;102564.21;1704845;84;25627;-51
2023/02/07 01:56:46;;;;;;;90.30;41.65;;;;;;;-2.91;81.27;102557.09;1704850;84;25670;-53
2023/02/07 01:59:14;;;;;;;93.22;43.02;;;;;;;-2.90;81.25;102565.37;1704901;84;28125;-51
2023/02/07 02:01:46;;;;;;;87.05;41.45;;;;;;;-2.89;81.23;102571.02;1704771;84;25551;-50
2023/02/07 02:04:12;;;;;;;84.72;40.60;;;;;;;-2.88;81.28;102568.68;1704919;84;25617;-50
2023/02/07 02:06:42;;;;;;;82.72;37.60;;;;;;;-2.88;81.28;102566.03;1676725;84;25649;-50
2023/02/07 02:09:14;;;;;;;88.40;40.90;;;;;;;-2.88;81.33;102565.56;1704980;84;25659;-53
2023/02/07 02:11:49;;;;;;;88.67;40.58;;;;;;;-2.88;81.33;102560.73;1704914;84;27314;-51
2023/02/07 02:14:59;;;;;;;88.35;42.98;;;;;;;-2.87;81.42;102557.11;1704783;84;25485;-50
2023/02/07 02:17:42;;;;;;;107.40;48.40;;;;;;;-2.86;81.37;102556.95;1705029;84;25577;-54
2023/02/07 02:20:44;;;;;;;130.37;58.33;;;;;;;-2.85;81.46;102557.77;1704865;84;25629;-53
2023/02/07 02:23:53;;;;;;;107.65;49.80;;;;;;;-2.82;81.45;102554.80;1704947;84;25615;-51
2023/02/07 02:26:38;;;;;;;92.08;43.30;;;;;;;-2.82;81.57;102548.17;1705033;84;27323;-50
2023/02/07 02:29:50;;;;;;;86.92;39.48;;;;;;;-2.79;81.61;102555.80;1704803;84;25654;-51
2023/02/07 02:32:43;;;;;;;108.27;50.03;;;;;;;-2.77;81.72;102549.83;1704918;84;25569;-51
2023/02/07 02:35:33;;;;;;;112.20;48.60;;;;;;;-2.75;81.74;102541.22;1669733;85;25671;-54
2023/02/07 02:38:17;;;;;;;86.57;43.63;;;;;;;-2.76;81.79;102534.76;1587902;90;25810;-52
2023/02/07 02:40:49;;;;;;;95.85;43.63;;;;;;;-2.74;81.99;102533.61;1588081;90;28023;-51
2023/02/07 02:43:32;;;;;;;92.27;41.63;;;;;;;-2.73;81.85;102542.37;1587127;89;25768;-51
2023/02/07 02:46:04;;;;;;;86.57;41.48;;;;;;;-2.72;81.90;102548.84;1588016;90;25482;-50
2023/02/07 02:48:34;;;;;;;86.75;41.53;;;;;;;-2.71;81.90;102543.03;1582117;90;25695;-51
2023/02/07 02:51:05;;;;;;;85.92;39.03;;;;;;;-2.70;81.89;102546.84;1587917;90;25618;-51
2023/02/07 02:53:34;;;;;;;84.70;41.40;;;;;;;-2.69;81.99;102548.52;1587869;90;27356;-54
2023/02/07 02:56:24;;;;;;;93.22;39.38;;;;;;;-2.67;81.99;102557.62;1587974;90;25685;-52
2023/02/07 02:59:15;;;;;;;87.08;40.63;;;;;;;-2.68;82.03;102553.31;1587860;90;25674;-52
2023/02/07 03:02:08;;;;;;;86.78;39.98;;;;;;;-2.69;82.09;102545.87;1558251;92;25851;-51
2023/02/07 03:05:15;;;;;;;85.75;38.70;;;;;;;-2.65;82.14;102552.48;1558485;92;25546;-52
2023/02/07 03:08:18;;;;;;;82.53;39.42;;;;;;;-2.66;82.25;102554.78;1558530;92;27357;-50
2023/02/07 03:10:50;;;;;;;84.37;40.12;;;;;;;-2.65;82.35;102548.50;1512875;94;25705;-50
2023/02/07 03:13:34;;;;;;;86.72;41.45;;;;;;;-2.64;82.31;102554.63;1513406;94;25633;-51
2023/02/07 03:16:22;;;;;;;80.55;39.70;;;;;;;-2.63;82.45;102550.48;1582839;90;25632;-51
2023/02/07 03:19:30;;;;;;;84.40;39.30;;;;;;;-2.60;82.52;102556.47;1580303;89;25531;-51
2023/02/07 03:22:09;;;;;;;81.87;39.15;;;;;;;-2.58;82.59;102549.17;1566287;91;27347;-51
2023/02/07 03:24:39;;;;;;;84.07;39.83;;;;;;;-2.56;82.69;102543.21;1566178;91;25879;-50
2023/02/07 03:27:10;;;;;;;89.20;40.48;;;;;;;-2.53;82.65;102543.70;1566250;91;25715;-50
2023/02/07 03:29:42;;;;;;;78.60;38.50;;;;;;;-2.53;82.71;102543.70;1566220;91;25702;-51
2023/02/07 03:32:12;;;;;;;80.12;38.02;;;;;;;-2.50;82.69;102543.38;1566290;91;25482;-51
2023/02/07 03:34:58;;;;;;;79.12;38.98;;;;;;;-2.48;82.78;102548.52;1566202;91;27414;-50
2023/02/07 03:37:41;;;;;;;89.00;39.65;;;;;;;-2.47;82.76;102548.34;1566179;91;25637;-49
2023/02/07 03:40:13;;;;;;;77.35;37.63;;;;;;;-2.44;82.86;102552.47;1603959;89;25724;-52
2023/02/07 03:42:44;;;;;;;85.95;37.80;;;;;;;-2.41;82.92;102552.14;1573606;91;25628;-50
2023/02/07 03:45:19;;;;;;;77.58;37.10;;;;;;;-2.39;82.93;102546.17;1603182;89;25559;-51
2023/02/07 03:47:49;;;;;;;71.20;35.73;;;;;;;-2.40;82.91;102547.19;1628291;86;27438;-50
2023/02/07 03:50:19;;;;;;;76.07;36.45;;;;;;;-2.38;82.97;102545.66;1644921;87;26036;-51
2023/02/07 03:52:45;;;;;;;78.37;36.60;;;;;;;-2.39;83.06;102536.08;1661843;86;25566;-53
2023/02/07 03:55:11;;;;;;;74.45;36.10;;;;;;;-2.38;83.05;102533.73;1661885;86;25724;-54
2023/02/07 03:57:41;;;;;;;73.67;36.90;;;;;;;-2.36;83.09;102534.42;1661961;86;25476;-51
2023/02/07 04:00:14;;;;;;;72.97;35.50;;;;;;;-2.35;83.16;102532.93;1695712;84;27411;-50
2023/02/07 04:02:42;;;;;;;71.82;34.80;;;;;;;-2.35;83.23;102542.20;1695796;84;25482;-50
2023/02/07 04:05:08;;;;;;;80.35;37.15;;;;;;;-2.34;83.23;102542.52;1695752;84;25564;-50
2023/02/07 04:07:37;;;;;;;71.92;34.35;;;;;;;-2.33;83.29;102546.02;1695670;84;25618;-49
2023/02/07 04:10:08;;;;;;;72.25;34.40;;;;;;;-2.33;83.30;102544.19;1695767;83;25513;-49
2023/02/07 04:12:35;;;;;;;71.17;33.80;;;;;;;-2.32;83.36;102541.84;1695748;84;27332;-51
2023/02/07 04:15:07;;;;;;;73.78;35.90;;;;;;;-2.31;83.43;102546.16;1695697;84;27279;-49
2023/02/07 04:17:33;;;;;;;70.78;34.67;;;;;;;-2.33;83.61;102533.58;1695733;84;25569;-50
2023/02/07 04:20:09;;;;;;;69.40;34.48;;;;;;;-2.33;83.60;102538.88;1698711;84;26160;-50
2023/02/07 04:22:35;;;;;;;66.80;34.45;;;;;;;-2.32;83.71;102539.70;1699819;84;25420;-50
2023/02/07 04:25:01;;;;;;;65.57;31.50;;;;;;;-2.32;83.73;102540.52;1699737;84;27341;-51
2023/02/07 04:27:30;;;;;;;70.50;35.17;;;;;;;-2.31;83.80;102536.07;1699660;84;25675;-50
2023/02/07 04:29:58;;;;;;;71.40;33.40;;;;;;;-2.31;83.90;102528.12;1699795;84;25541;-52
2023/02/07 04:32:25;;;;;;;72.17;35.73;;;;;;;-2.30;83.84;102524.45;1699679;84;25679;-50
2023/02/07 04:34:51;;;;;;;65.40;33.88;;;;;;;-2.30;84.04;102526.62;1699715;84;25525;-51
2023/02/07 04:37:17;;;;;;;75.95;33.75;;;;;;;-2.29;83.99;102518.16;1699642;84;27382;-53
2023/02/07 04:39:43;;;;;;;65.70;34.40;;;;;;;-2.28;84.17;102510.55;1699624;84;29772;-50
2023/02/07 04:42:09;;;;;;;71.17;34.48;;;;;;;-2.28;84.08;102509.23;1699672;84;25603;-51
2023/02/07 04:44:35;;;;;;;70.00;32.95;;;;;;;-2.27;84.14;102511.68;1699672;84;25664;-51
2023/02/07 04:47:02;;;;;;;68.02;33.92;;;;;;;-2.26;84.16;102512.02;1699721;84;25558;-51
2023/02/07 04:49:28;;;;;;;68.72;33.50;;;;;;;-2.27;84.24;102501.08;1699765;84;27302;-51
2023/02/07 04:51:54;;;;;;;69.07;31.73;;;;;;;-2.26;84.28;102496.62;1699644;84;30333;-54
2023/02/07 04:54:22;;;;;;;72.32;33.65;;;;;;;-2.27;84.46;102499.75;1699637;84;25634;-52
2023/02/07 04:56:48;;;;;;;67.70;34.00;;;;;;;-2.26;84.43;102501.92;1699695;84;25617;-51
2023/02/07 04:59:15;;;;;;;65.90;33.13;;;;;;;-2.26;84.48;102502.74;1699643;84;25405;-54
2023/02/07 05:01:41;;;;;;;73.25;32.63;;;;;;;-2.24;84.55;102504.41;1699716;83;28023;-53
2023/02/07 05:04:07;;;;;;;64.87;31.95;;;;;;;-2.26;84.56;102496.11;1699616;83;25596;-54
2023/02/07 05:06:35;;;;;;;73.62;33.05;;;;;;;-2.24;84.64;102501.76;1699687;84;25574;-54
2023/02/07 05:09:01;;;;;;;65.78;31.90;;;;;;;-2.22;84.67;102506.39;1699637;84;25655;-54
2023/02/07 05:11:27;;;;;;;60.28;30.68;;;;;;;-2.22;84.74;102506.39;1699744;84;25749;-51
2023/02/07 05:13:54;;;;;;;67.75;34.03;;;;;;;-2.22;84.88;102509.86;1699677;83;27409;-51
2023/02/07 05:16:20;;;;;;;65.92;32.28;;;;;;;-2.21;84.84;102512.00;1699591;84;25538;-51
2023/02/07 05:18:46;;;;;;;64.55;31.23;;;;;;;-2.21;84.92;102505.38;1696257;84;25470;-51
2023/02/07 05:21:13;;;;;;;58.45;30.48;;;;;;;-2.20;84.90;102518.47;1705301;84;25732;-53
2023/02/07 05:23:42;;;;;;;63.85;30.88;;;;;;;-2.20;84.94;102518.97;1677602;84;25665;-51
2023/02/07 05:26:10;;;;;;;57.70;29.10;;;;;;;-2.20;85.04;102522.44;1700315;84;27434;-50
2023/02/07 05:28:37;;;;;;;57.10;29.27;;;;;;;-2.18;85.03;102524.92;1705023;82;25634;-52
2023/02/07 05:31:06;;;;;;;54.40;28.70;;;;;;;-2.17;85.07;102514.66;1705133;84;25609;-50
2023/02/07 05:33:32;;;;;;;56.83;28.50;;;;;;;-2.17;85.12;102515.48;1705252;84;25569;-52
2023/02/07 05:36:03;;;;;;;54.58;27.77;;;;;;;-2.16;85.14;102517.15;1705110;84;25566;-51
2023/02/07 05:38:32;;;;;;;60.83;28.38;;;;;;;-2.15;85.18;102520.62;1705051;84;29452;-50
2023/02/07 05:40:58;;;;;;;53.23;27.42;;;;;;;-2.14;85.21;102513.82;1704992;84;25408;-51
2023/02/07 05:43:26;;;;;;;56.73;29.25;;;;;;;-2.12;85.22;102509.67;1705189;84;25579;-51
2023/02/07 05:45:52;;;;;;;57.38;27.90;;;;;;;-2.14;85.29;102507.19;1705017;84;25626;-52
2023/02/07 05:48:18;;;;;;;57.50;28.10;;;;;;;-2.11;85.32;102524.09;1705133;83;25577;-50
2023/02/07 05:50:48;;;;;;;55.23;26.55;;;;;;;-2.10;85.29;102526.23;1705090;84;27255;-51
2023/02/07 05:53:14;;;;;;;57.48;27.05;;;;;;;-2.11;85.36;102525.90;1704977;83;25611;-50
2023/02/07 05:55:41;;;;;;;56.83;26.55;;;;;;;-2.10;85.36;102531.03;1705133;84;25552;-53
2023/02/07 05:58:07;;;;;;;58.92;27.45;;;;;;;-2.07;85.44;102532.03;1705055;84;25674;-51
2023/02/07 06:00:33;;;;;;;52.88;27.22;;;;;;;-2.03;85.43;102526.39;1705157;83;25416;-51
2023/02/07 06:03:02;;;;;;;56.70;26.87;;;;;;;-2.03;85.41;102518.44;1705051;84;27433;-54
2023/02/07 06:05:32;;;;;;;54.20;26.93;;;;;;;-2.01;85.36;102520.41;1705091;84;25420;-52
2023/02/07 06:08:02;;;;;;;53.50;26.15;;;;;;;-1.99;85.37;102517.08;1676956;84;25496;-51
2023/02/07 06:10:30;;;;;;;54.58;25.57;;;;;;;-2.00;85.36;102520.24;1677109;84;25648;-52
2023/02/07 06:12:56;;;;;;;47.48;23.98;;;;;;;-1.98;85.32;102516.91;1705137;84;25401;-52
2023/02/07 06:15:22;;;;;;;51.42;25.37;;;;;;;-1.95;85.38;102517.09;1705153;84;27925;-53
2023/02/07 06:17:50;;;;;;;48.63;25.72;;;;;;;-1.94;85.36;102512.09;1705037;84;25663;-53
2023/02/07 06:20:17;;;;;;;48.65;25.05;;;;;;;-1.93;85.32;102527.84;1697507;84;25844;-50
2023/02/07 06:22:43;;;;;;;54.25;25.60;;;;;;;-1.93;85.41;102513.76;1692639;84;25801;-48
2023/02/07 06:25:10;;;;;;;50.45;25.80;;;;;;;-1.91;85.42;102527.19;1692646;84;25779;-50
2023/02/07 06:27:41;;;;;;;47.53;25.23;;;;;;;-1.92;85.37;102527.36;1692431;84;29487;-50
2023/02/07 06:30:13;;;;;;;49.48;24.02;;;;;;;-1.90;85.34;102526.69;1692370;84;25383;-50
2023/02/07 06:32:40;;;;;;;48.55;24.35;;;;;;;-1.90;85.39;102528.83;1698350;84;25658;-52
2023/02/07 06:35:11;;;;;;;49.13;23.67;;;;;;;-1.88;85.47;102533.45;1692491;84;27801;-52
2023/02/07 06:37:38;;;;;;;46.95;24.43;;;;;;;-1.85;85.43;102528.84;1692614;84;25633;-48
2023/02/07 06:40:10;;;;;;;47.78;24.18;;;;;;;-1.83;85.47;102530.81;1692479;84;27475;-52
2023/02/07 06:42:36;;;;;;;48.68;23.62;;;;;;;-1.82;85.42;102531.97;1692261;84;25692;-48
2023/02/07 06:45:09;;;;;;;45.98;23.85;;;;;;;-1.79;85.44;102534.77;1692572;84;25398;-51
2023/02/07 06:47:35;;;;;;;47.08;24.32;;;;;;;-1.77;85.45;102539.39;1692598;84;25608;-50
2023/02/07 06:50:03;;;;;;;44.77;23.40;;;;;;;-1.76;85.49;102541.06;1692634;84;25549;-55
2023/02/07 06:52:32;;;;;;;47.17;24.43;;;;;;;-1.75;85.51;102538.23;1692612;84;28536;-53
2023/02/07 06:54:59;;;;;;;40.20;23.47;;;;;;;-1.73;85.47;102548.17;1691787;84;25951;-54
2023/02/07 06:57:25;;;;;;;45.65;23.12;;;;;;;-1.72;85.43;102551.17;1691852;84;25973;-52
2023/02/07 06:59:51;;;;;;;45.83;24.60;;;;;;;-1.69;85.43;102548.66;1692222;84;25700;-51
2023/02/07 07:02:17;;;;;;;45.05;23.20;;;;;;;-1.67;85.43;102561.25;1692540;84;25617;-51
2023/02/07 07:04:49;;;;;;;45.43;23.25;;;;;;;-1.63;85.49;102565.23;1692527;84;27555;-53
2023/02/07 07:07:15;;;;;;;44.40;23.25;;;;;;;-1.60;85.53;102559.59;1692554;84;25588;-51
2023/02/07 07:09:42;;;;;;;46.53;23.45;;;;;;;-1.57;85.39;102561.05;1692487;84;25636;-54
2023/02/07 07:12:13;;;;;;;40.95;22.95;;;;;;;-1.56;85.39;102562.21;1692542;84;25617;-51
2023/02/07 07:14:39;;;;;;;45.40;21.85;;;;;;;-1.53;85.41;102560.55;1692681;84;25467;-53
2023/02/07 07:17:05;;;;;;;39.88;21.68;;;;;;;-1.49;85.40;102560.20;1692611;84;27406;-52
2023/02/07 07:19:32;;;;;;;42.88;22.75;;;;;;;-1.46;85.35;102562.01;1692347;84;25468;-51
2023/02/07 07:21:58;;;;;;;40.98;21.12;;;;;;;-1.44;85.36;102557.34;1692684;84;25647;-54
2023/02/07 07:24:26;;;;;;;41.83;22.22;;;;;;;-1.38;85.39;102557.99;1692570;84;26341;-51
2023/02/07 07:26:53;;;;;;;42.08;21.45;;;;;;;-1.35;85.35;102552.82;1692614;84;25411;-50
2023/02/07 07:29:19;;;;;;;38.05;20.85;;;;;;;-1.31;85.26;102558.13;1692529;84;27391;-50
2023/02/07 07:31:48;;;;;;;39.70;21.07;;;;;;;-1.28;85.12;102564.91;1670758;84;25599;-51
2023/02/07 07:34:16;;;;;;;41.80;23.15;;;;;;;-1.28;85.09;102556.94;1692532;84;25616;-51
2023/02/07 07:36:42;;;;;;;42.03;21.82;;;;;;;-1.25;84.99;102568.03;1692467;84;25633;-51
2023/02/07 07:39:09;;;;;;;43.00;22.77;;;;;;;-1.21;85.03;102575.15;1692533;84;25613;-50
2023/02/07 07:41:37;;;;;;;41.23;22.30;;;;;;;-1.17;85.04;102567.17;1692217;84;27238;-51
2023/02/07 07:44:03;;;;;;;46.80;22.90;;;;;;;-1.14;85.05;102572.14;1691177;84;25769;-52
2023/02/07 07:46:30;;;;;;;41.08;22.48;;;;;;;-1.13;84.82;102565.30;1692325;84;25861;-52
2023/02/07 07:48:56;;;;;;;50.48;23.42;;;;;;;-1.09;84.75;102573.78;1692295;84;25706;-50
2023/02/07 07:51:26;;;;;;;47.88;24.77;;;;;;;-1.07;84.71;102571.77;1692502;84;25613;-51
2023/02/07 07:53:52;;;;;;;45.30;23.65;;;;;;;-1.05;84.67;102577.72;1692564;84;27328;-51
2023/02/07 07:56:19;;;;;;;46.33;21.87;;;;;;;-1.02;84.64;102580.03;1692355;84;25463;-51
2023/02/07 07:58:47;;;;;;;41.77;22.40;;;;;;;-1.00;84.60;102580.68;1692537;84;25907;-53
2023/02/07 08:01:18;;;;;;;29.10;14.83;;;;;;;-0.97;84.64;102583.47;1692599;84;31926;-55
2023/02/07 08:03:44;;;;;;;45.60;22.80;;;;;;;-0.95;84.60;102586.30;1692604;84;25443;-54
2023/02/07 08:06:10;;;;;;;42.43;23.05;;;;;;;-0.89;84.54;102593.23;1692507;84;27333;-51
2023/02/07 08:08:39;;;;;;;56.30;27.98;;;;;;;-0.88;84.41;102597.56;1691810;83;25626;-54
2023/02/07 08:11:10;;;;;;;52.93;27.52;;;;;;;-0.87;84.36;102597.87;1692608;84;25635;-50
2023/02/07 08:13:40;;;;;;;52.85;26.23;;;;;;;-0.85;84.30;102606.00;1692516;84;26147;-50
2023/02/07 08:16:11;;;;;;;52.70;24.30;;;;;;;-0.81;84.42;102609.13;1692517;84;25618;-51
2023/02/07 08:18:37;;;;;;;38.55;23.27;;;;;;;-0.79;84.33;102609.78;1692486;84;28184;-53
2023/02/07 08:21:05;;;;;;;39.83;20.95;;;;;;;-0.74;84.26;102619.89;1696516;84;25451;-55
2023/02/07 08:23:33;;;;;;;38.83;20.32;;;;;;;-0.73;84.26;102613.07;1699742;84;25647;-53
2023/02/07 08:26:06;;;;;;;42.05;21.95;;;;;;;-0.69;84.11;102617.02;1699735;84;25622;-51
2023/02/07 08:28:36;;;;;;;37.45;20.15;;;;;;;-0.67;84.06;102615.52;1699779;84;25553;-54
2023/02/07 08:31:07;;;;;;;38.45;19.23;;;;;;;-0.64;83.98;102615.17;1699783;84;27352;-54
2023/02/07 08:33:36;;;;;;;40.75;20.95;;;;;;;-0.60;83.99;102619.93;1699640;84;25799;-54
2023/02/07 08:36:10;;;;;;;43.78;22.02;;;;;;;-0.55;84.00;102614.09;1699796;84;25549;-51
2023/02/07 08:38:38;;;;;;;50.20;25.45;;;;;;;-0.52;84.01;102612.41;1699790;84;25717;-53
2023/02/07 08:41:09;;;;;;;37.58;19.95;;;;;;;-0.48;83.97;102619.02;1699812;84;25410;-51
2023/02/07 08:43:37;;;;;;;33.50;18.82;;;;;;;-0.43;83.73;102611.84;1699783;84;27444;-51
2023/02/07 08:46:06;;;;;;;32.90;17.98;;;;;;;-0.43;83.56;102614.50;1692880;84;26026;-52
2023/02/07 08:48:34;;;;;;;40.60;19.67;;;;;;;-0.40;83.67;102614.97;1699857;84;25530;-50
2023/02/07 08:51:09;;;;;;;38.38;19.23;;;;;;;-0.35;83.62;102619.76;1699780;84;25663;-51
2023/02/07 08:53:36;;;;;;;41.75;20.17;;;;;;;-0.32;83.51;102622.06;1693469;84;25620;-52
2023/02/07 08:56:09;;;;;;;41.60;20.32;;;;;;;-0.28;83.52;102627.34;1699677;84;25671;-51
2023/02/07 08:58:36;;;;;;;35.92;20.12;;;;;;;-0.25;83.51;102625.66;1699716;84;25402;-52
2023/02/07 09:01:10;;;;;;;35.73;20.32;;;;;;;-0.17;83.56;102626.11;1699815;84;25902;-51
2023/02/07 09:03:38;;;;;;;40.78;19.73;;;;;;;-0.12;83.60;102622.40;1699771;84;26369;-51
2023/02/07 09:06:09;;;;;;;31.60;18.48;;;;;;;-0.10;83.11;102624.38;1699891;84;25474;-54
2023/02/07 09:08:36;;;;;;;31.70;18.50;;;;;;;-0.07;82.96;102633.81;1699876;84;27355;-51
2023/02/07 09:11:02;;;;;;;35.20;17.87;;;;;;;-0.06;82.75;102637.63;1699794;83;25315;-51
2023/02/07 09:13:29;;;;;;;41.63;19.10;;;;;;;-0.07;82.62;102634.66;1699908;84;26025;-50
2023/02/07 09:15:59;;;;;;;34.35;19.62;;;;;;;-0.03;82.68;102632.45;1699692;84;25671;-51
2023/02/07 09:18:26;;;;;;;32.55;17.30;;;;;;;-0.02;82.53;102634.09;1699722;84;25647;-54
2023/02/07 09:20:54;;;;;;;40.67;19.00;;;;;;;-0.01;82.45;102636.58;1699522;83;27393;-51
2023/02/07 09:23:20;;;;;;;37.65;18.87;;;;;;;0.02;82.49;102634.55;1699685;84;25810;-50
2023/02/07 09:25:52;;;;;;;32.45;17.30;;;;;;;0.06;82.61;102638.53;1699765;83;25461;-51
2023/02/07 09:28:22;;;;;;;30.52;17.73;;;;;;;0.08;82.49;102641.83;1699749;84;25953;-51
2023/02/07 09:30:49;;;;;;;33.02;18.12;;;;;;;0.13;82.67;102633.61;1699836;84;25600;-54
2023/02/07 09:33:17;;;;;;;29.67;17.15;;;;;;;0.18;82.54;102632.56;1699737;84;29507;-52
2023/02/07 09:35:47;;;;;;;35.48;17.82;;;;;;;0.24;82.56;102626.19;1699680;84;25613;-52
2023/02/07 09:38:19;;;;;;;39.00;18.10;;;;;;;0.28;82.50;102619.50;1699767;84;25246;-54
2023/02/07 09:40:50;;;;;;;32.88;17.73;;;;;;;0.32;82.24;102616.30;1699680;84;25655;-54
2023/02/07 09:43:37;;;;;;;30.40;16.97;;;;;;;0.36;82.24;102615.43;1699749;84;25657;-54
2023/02/07 09:46:18;;;;;;;30.17;17.35;;;;;;;0.40;82.08;102616.70;1699742;84;27354;-52
2023/02/07 09:49:19;;;;;;;31.75;15.80;;;;;;;0.44;81.89;102602.51;1699656;84;25797;-54
2023/02/07 09:51:51;;;;;;;27.48;15.20;;;;;;;0.46;82.09;102599.16;1699683;84;25633;-54
2023/02/07 09:54:34;;;;;;;26.82;15.20;;;;;;;0.51;81.85;102603.42;1699836;84;25631;-52
2023/02/07 09:57:06;;;;;;;28.25;14.75;;;;;;;0.51;81.67;102600.75;1699776;84;25466;-54
2023/02/07 10:00:11;;;;;;;32.93;14.63;;;;;;;0.57;81.66;102605.87;1699355;84;27330;-54
2023/02/07 10:02:49;;;;;;;29.12;15.10;;;;;;;0.59;81.46;102603.84;1635033;87;25945;-51
2023/02/07 10:05:21;;;;;;;27.02;14.87;;;;;;;0.61;81.40;102609.80;1635043;87;25778;-50
2023/02/07 10:07:53;;;;;;;26.70;13.88;;;;;;;0.62;81.09;102605.63;1635232;87;25632;-51
2023/02/07 10:10:36;;;;;;;30.43;14.80;;;;;;;0.60;80.98;102611.65;1660884;86;25685;-51
2023/02/07 10:13:40;;;;;;;36.83;15.75;;;;;;;0.59;81.03;102605.98;1633432;87;27352;-50
2023/02/07 10:16:26;;;;;;;25.92;13.93;;;;;;;0.62;80.96;102599.48;1635126;87;25685;-51
2023/02/07 10:19:10;;;;;;;25.32;14.20;;;;;;;0.63;80.80;102590.45;1635408;87;25534;-52
2023/02/07 10:22:19;;;;;;;21.57;13.10;;;;;;;0.63;80.61;102591.30;1632139;85;25691;-49
2023/02/07 10:24:52;;;;;;;;;;;;;;;0.60;80.72;102586.34;1637720;87;25620;-50
2023/02/07 10:27:24;;;;;;;26.73;14.38;;;;;;;0.69;81.10;102590.54;1634499;87;27426;-49
2023/02/07 10:30:16;;;;;;;26.35;15.32;;;;;;;0.72;80.98;102591.51;1632390;87;25720;-50
2023/02/07 10:32:46;;;;;;;29.23;14.07;;;;;;;0.76;80.91;102583.97;1635362;87;25514;-50
2023/02/07 10:35:38;;;;;;;25.23;13.70;;;;;;;0.77;80.31;102588.29;1635147;87;25859;-51
2023/02/07 10:38:10;;;;;;;22.62;13.00;;;;;;;0.76;80.42;102577.81;1652229;84;25702;-50
2023/02/07 10:40:51;;;;;;;24.18;14.30;;;;;;;0.77;80.45;102569.64;1699528;83;27248;-48
2023/02/07 10:43:32;;;;;;;26.97;14.65;;;;;;;0.80;80.65;102565.77;1693530;84;27632;-49
2023/02/07 10:46:04;;;;;;;22.62;13.22;;;;;;;0.89;80.82;102568.65;1700141;84;25620;-49
2023/02/07 10:48:37;;;;;;;23.32;13.48;;;;;;;0.94;80.86;102570.24;1700131;84;25704;-50
2023/02/07 10:51:12;;;;;;;24.92;13.28;;;;;;;0.97;80.62;102567.69;1700080;84;25230;-51
2023/02/07 10:54:08;;;;;;;28.23;14.53;;;;;;;1.03;80.79;102570.94;1690058;84;27753;-48
2023/02/07 10:56:53;;;;;;;137.40;75.10;;;;;;;1.08;80.38;102569.35;1699206;83;25847;-54
2023/02/07 10:59:44;;;;;;;63.75;32.48;;;;;;;1.10;80.09;102567.31;1698907;84;25649;-48
2023/02/07 11:02:32;;;;;;;32.70;14.80;;;;;;;1.15;80.12;102572.09;1699406;84;25875;-47
2023/02/07 11:05:21;;;;;;;28.52;15.60;;;;;;;1.18;80.04;102569.56;1700181;84;25403;-48
2023/02/07 11:08:08;;;;;;;27.15;13.62;;;;;;;1.18;79.58;102574.38;1700214;84;27447;-46
2023/02/07 11:10:40;;;;;;;25.50;14.73;;;;;;;1.19;79.64;102571.20;1696436;84;25581;-47
2023/02/07 11:13:20;;;;;;;26.82;15.00;;;;;;;1.23;79.69;102571.97;1700117;84;25480;-45
2023/02/07 11:15:52;;;;;;;32.45;15.90;;;;;;;1.24;79.42;102569.63;1700057;84;26196;-46
2023/02/07 11:18:30;;;;;;;35.88;17.25;;;;;;;1.25;79.24;102565.11;1700006;84;25512;-45
2023/02/07 11:20:56;;;;;;;32.03;17.17;;;;;;;1.26;79.26;102560.92;1699270;84;27984;-45
2023/02/07 11:23:26;;;;;;;28.17;16.30;;;;;;;1.32;79.76;102559.84;1693548;83;25583;-45
2023/02/07 11:25:56;;;;;;;33.40;17.05;;;;;;;1.39;79.80;102555.39;1693390;84;25212;-45
2023/02/07 11:28:32;;;;;;;26.12;15.55;;;;;;;1.44;79.75;102551.64;1693407;83;25739;-44
2023/02/07 11:31:09;;;;;;;30.72;18.00;;;;;;;1.48;79.30;102549.73;1693620;84;25657;-47
2023/02/07 11:33:38;;;;;;;36.40;16.70;;;;;;;1.55;79.64;102553.80;1693479;84;27478;-45
2023/02/07 11:36:25;;;;;;;25.08;15.43;;;;;;;1.69;79.91;102566.72;1693509;84;25624;-45